createdAt,value
2023-02-11T00:00:45.005Z,25
2023-02-11T00:01:45.380Z,25.29999924
2023-02-11T00:02:47.924Z,24
2023-02-11T00:03:46.595Z,25.20000076
2023-02-11T00:04:46.964Z,25.29999924
2023-02-11T00:05:48.879Z,21.39999962
2023-02-11T00:06:49.523Z,24.89999962
2023-02-11T00:07:50.000Z,22.39999962
2023-02-11T00:08:50.513Z,23.10000038
2023-02-11T00:09:50.997Z,25.5
2023-02-11T00:10:51.785Z,25.5
2023-02-11T00:11:52.046Z,24.60000038
2023-02-11T00:12:52.526Z,25
2023-02-11T00:13:53.020Z,23.89999962
2023-02-11T00:14:54.058Z,21.89999962
2023-02-11T00:15:54.561Z,23
2023-02-11T00:16:55.819Z,22.60000038
2023-02-11T00:17:56.162Z,22.89999962
2023-02-11T00:18:56.649Z,23.39999962
2023-02-11T00:19:57.122Z,24.10000038
2023-02-11T00:20:57.677Z,23.20000076
2023-02-11T00:21:58.191Z,23.5
2023-02-11T00:22:58.710Z,21.79999924
2023-02-11T00:23:59.159Z,24.20000076
2023-02-11T00:24:59.633Z,24.10000038
2023-02-11T00:26:00.996Z,23.60000038
2023-02-11T00:27:01.490Z,23.89999962
2023-02-11T00:28:02.052Z,22.79999924
2023-02-11T00:29:02.473Z,25.60000038
2023-02-11T00:30:03.355Z,23.10000038
2023-02-11T00:31:34.139Z,23.79999924
2023-02-11T00:32:34.551Z,25.70000076
2023-02-11T00:33:34.930Z,24.39999962
2023-02-11T00:34:35.434Z,22.79999924
2023-02-11T00:35:36.539Z,25.79999924
2023-02-11T00:36:37.032Z,26.39999962
2023-02-11T00:37:37.617Z,24.20000076
2023-02-11T00:38:38.052Z,25
2023-02-11T00:39:38.520Z,26.20000076
2023-02-11T00:40:38.991Z,22.70000076
2023-02-11T00:41:39.414Z,21.39999962
2023-02-11T00:42:39.949Z,26.70000076
2023-02-11T00:43:40.601Z,24.20000076
2023-02-11T00:44:41.026Z,23.10000038
2023-02-11T00:45:42.196Z,21.70000076
2023-02-11T00:46:42.828Z,23.5
2023-02-11T00:47:43.177Z,22.79999924
2023-02-11T00:48:43.637Z,21.5
2023-02-11T00:49:44.173Z,22.39999962
2023-02-11T00:50:44.588Z,25.10000038
2023-02-11T00:51:45.026Z,23.20000076
2023-02-11T00:52:45.488Z,23
2023-02-11T00:53:45.884Z,21.79999924
2023-02-11T00:54:46.484Z,22.20000076
2023-02-11T00:55:48.022Z,28.39999962
2023-02-11T00:56:48.522Z,24.79999924
2023-02-11T00:57:49.076Z,24.79999924
2023-02-11T00:58:49.535Z,24.60000038
2023-02-11T00:59:50.235Z,23.20000076
2023-02-11T01:00:50.704Z,23.70000076
2023-02-11T01:01:51.350Z,22.60000038
2023-02-11T01:02:51.747Z,22.89999962
2023-02-11T01:03:52.183Z,23.79999924
2023-02-11T01:04:52.934Z,27.29999924
2023-02-11T01:05:54.261Z,26.29999924
2023-02-11T01:06:54.866Z,25.29999924
2023-02-11T01:07:56.223Z,21.79999924
2023-02-11T01:08:56.962Z,23.20000076
2023-02-11T01:09:57.415Z,23.5
2023-02-11T01:10:58.024Z,23.79999924
2023-02-11T01:11:58.514Z,23.60000038
2023-02-11T01:12:59.035Z,22.29999924
2023-02-11T01:13:59.558Z,25.39999962
2023-02-11T01:15:00.043Z,21.20000076
2023-02-11T01:16:01.392Z,28.89999962
2023-02-11T01:17:01.705Z,23.39999962
2023-02-11T01:18:02.256Z,22.29999924
2023-02-11T01:19:33.149Z,22.89999962
2023-02-11T01:20:33.877Z,23.39999962
2023-02-11T01:21:34.448Z,23.29999924
2023-02-11T01:22:34.979Z,21.20000076
2023-02-11T01:23:35.440Z,24
2023-02-11T01:24:35.888Z,23.10000038
2023-02-11T01:25:36.364Z,24.70000076
2023-02-11T01:26:36.836Z,26.20000076
2023-02-11T01:27:38.442Z,22.60000038
2023-02-11T01:28:38.954Z,21.29999924
2023-02-11T01:29:39.540Z,19.70000076
2023-02-11T01:30:40.021Z,22.20000076
2023-02-11T01:31:40.929Z,23.39999962
2023-02-11T01:32:41.391Z,26.79999924
2023-02-11T01:33:41.854Z,23.5
2023-02-11T01:34:42.598Z,22.20000076
2023-02-11T01:35:44.008Z,22.89999962
2023-02-11T01:36:44.754Z,25.10000038
2023-02-11T01:37:46.009Z,22.29999924
2023-02-11T01:38:46.625Z,23.60000038
2023-02-11T01:39:47.168Z,22
2023-02-11T01:40:47.594Z,23.60000038
2023-02-11T01:41:48.248Z,22.20000076
2023-02-11T01:42:50.976Z,24.5
2023-02-11T01:43:49.223Z,21.10000038
2023-02-11T01:44:49.657Z,21.10000038
2023-02-11T01:45:51.440Z,21.10000038
2023-02-11T01:46:51.621Z,22.89999962
2023-02-11T01:47:51.942Z,20.10000038
2023-02-11T01:48:52.601Z,20.20000076
2023-02-11T01:49:52.979Z,22.79999924
2023-02-11T01:50:53.771Z,22.70000076
2023-02-11T01:51:54.439Z,21.79999924
2023-02-11T01:52:54.843Z,24.5
2023-02-11T01:53:55.379Z,22.20000076
2023-02-11T01:54:55.837Z,24.20000076
2023-02-11T01:55:57.496Z,23.10000038
2023-02-11T01:56:57.968Z,20.79999924
2023-02-11T01:57:58.658Z,22
2023-02-11T01:58:59.365Z,23.10000038
2023-02-11T01:59:59.848Z,24.20000076
2023-02-11T02:01:00.494Z,24.39999962
2023-02-11T02:02:01.111Z,23.60000038
2023-02-11T02:03:01.477Z,22.60000038
2023-02-11T02:04:32.838Z,23.70000076
2023-02-11T02:05:33.318Z,20.70000076
2023-02-11T02:06:34.841Z,22.79999924
2023-02-11T02:07:35.345Z,22.20000076
2023-02-11T02:08:35.750Z,22.10000038
2023-02-11T02:09:36.279Z,22.89999962
2023-02-11T02:10:36.733Z,22.5
2023-02-11T02:11:37.283Z,20.29999924
2023-02-11T02:12:37.766Z,23.79999924
2023-02-11T02:13:38.403Z,22.10000038
2023-02-11T02:14:38.932Z,21.89999962
2023-02-11T02:15:39.415Z,21.70000076
2023-02-11T02:16:41.148Z,23.79999924
2023-02-11T02:17:41.550Z,24.20000076
2023-02-11T02:18:41.953Z,22.29999924
2023-02-11T02:19:42.698Z,22.10000038
2023-02-11T02:20:43.154Z,21.29999924
2023-02-11T02:21:43.731Z,21.89999962
2023-02-11T02:22:44.277Z,21.39999962
2023-02-11T02:23:44.702Z,23.89999962
2023-02-11T02:24:45.196Z,22
2023-02-11T02:25:45.645Z,22.10000038
2023-02-11T02:26:46.841Z,23.60000038
2023-02-11T02:27:47.343Z,25.79999924
2023-02-11T02:28:47.750Z,21
2023-02-11T02:29:48.430Z,21
2023-02-11T02:30:48.941Z,20.39999962
2023-02-11T02:31:49.350Z,22
2023-02-11T02:32:50.099Z,23.10000038
2023-02-11T02:33:51.226Z,22.79999924
2023-02-11T02:34:51.836Z,21.70000076
2023-02-11T02:35:52.331Z,21.29999924
2023-02-11T02:36:53.714Z,22
2023-02-11T02:37:54.226Z,22.10000038
2023-02-11T02:38:54.649Z,21.70000076
2023-02-11T02:39:55.188Z,22.29999924
2023-02-11T02:40:55.636Z,23.60000038
2023-02-11T02:41:56.053Z,22.29999924
2023-02-11T02:42:56.748Z,21.5
2023-02-11T02:43:57.183Z,21.79999924
2023-02-11T02:44:57.780Z,22.60000038
2023-02-11T02:45:58.499Z,22.29999924
2023-02-11T02:46:59.930Z,24.10000038
2023-02-11T02:48:00.344Z,19.89999962
2023-02-11T02:49:00.778Z,21.20000076
2023-02-11T02:50:01.707Z,25.10000038
2023-02-11T02:51:32.366Z,22.89999962
2023-02-11T02:52:32.946Z,20.79999924
2023-02-11T02:53:33.319Z,22
2023-02-11T02:54:33.729Z,20.39999962
2023-02-11T02:55:34.196Z,22.79999924
2023-02-11T02:56:35.475Z,20.20000076
2023-02-11T02:57:35.960Z,22.79999924
2023-02-11T02:58:36.400Z,25.39999962
2023-02-11T02:59:36.806Z,24.29999924
2023-02-11T03:00:37.325Z,22
2023-02-11T03:01:37.684Z,22.10000038
2023-02-11T03:02:38.103Z,20.20000076
2023-02-11T03:03:38.529Z,24.39999962
2023-02-11T03:04:39.015Z,23.29999924
2023-02-11T03:05:39.513Z,21
2023-02-11T03:06:40.752Z,23.20000076
2023-02-11T03:07:41.787Z,23.89999962
2023-02-11T03:08:42.232Z,20.89999962
2023-02-11T03:09:42.617Z,20.79999924
2023-02-11T03:10:43.195Z,25
2023-02-11T03:11:44.471Z,24.10000038
2023-02-11T03:12:44.969Z,24.5
2023-02-11T03:13:45.348Z,22.20000076
2023-02-11T03:14:45.761Z,24.89999962
2023-02-11T03:15:46.195Z,23.10000038
2023-02-11T03:16:46.620Z,21.5
2023-02-11T03:17:47.797Z,22.79999924
2023-02-11T03:18:48.237Z,20.79999924
2023-02-11T03:19:48.664Z,20.89999962
2023-02-11T03:20:49.210Z,23.29999924
2023-02-11T03:21:49.610Z,22.39999962
2023-02-11T03:22:50.194Z,22.29999924
2023-02-11T03:23:50.648Z,21.29999924
2023-02-11T03:24:51.048Z,22.39999962
2023-02-11T03:25:51.879Z,23.5
2023-02-11T03:26:52.712Z,23.20000076
2023-02-11T03:27:54.206Z,22.10000038
2023-02-11T03:28:54.479Z,21.10000038
2023-02-11T03:29:54.890Z,23.5
2023-02-11T03:30:55.458Z,20.10000038
2023-02-11T03:31:55.907Z,22.89999962
2023-02-11T03:32:56.460Z,20.10000038
2023-02-11T03:33:56.868Z,22.10000038
2023-02-11T03:34:57.315Z,20.39999962
2023-02-11T03:35:57.707Z,20.79999924
2023-02-11T03:36:58.874Z,25.10000038
2023-02-11T03:37:59.329Z,19
2023-02-11T03:38:59.879Z,24.39999962
2023-02-11T03:40:00.308Z,22.79999924
2023-02-11T03:41:31.512Z,22.79999924
2023-02-11T03:42:31.970Z,22.70000076
2023-02-11T03:43:32.511Z,20.70000076
2023-02-11T03:44:32.977Z,21.20000076
2023-02-11T03:45:33.448Z,20.89999962
2023-02-11T03:46:34.494Z,20
2023-02-11T03:47:34.913Z,22.20000076
2023-02-11T03:48:35.440Z,20
2023-02-11T03:49:35.884Z,23
2023-02-11T03:50:36.329Z,22.10000038
2023-02-11T03:51:36.902Z,23.70000076
2023-02-11T03:52:37.322Z,22.5
2023-02-11T03:53:37.879Z,24.20000076
2023-02-11T03:54:38.297Z,22
2023-02-11T03:55:38.725Z,21
2023-02-11T03:56:39.997Z,22
2023-02-11T03:57:40.653Z,21.10000038
2023-02-11T03:58:41.156Z,21
2023-02-11T03:59:41.584Z,23.10000038
2023-02-11T04:00:42.052Z,22
2023-02-11T04:01:42.478Z,21
2023-02-11T04:02:42.890Z,21.10000038
2023-02-11T04:03:43.351Z,20.70000076
2023-02-11T04:04:43.766Z,20.79999924
2023-02-11T04:05:44.817Z,23.89999962
2023-02-11T04:06:45.988Z,21.89999962
2023-02-11T04:07:46.406Z,21.5
2023-02-11T04:08:47.114Z,24
2023-02-11T04:09:47.510Z,20.5
2023-02-11T04:10:47.994Z,21.60000038
2023-02-11T04:11:49.204Z,23.20000076
2023-02-11T04:12:49.658Z,20.89999962
2023-02-11T04:13:50.174Z,19.5
2023-02-11T04:14:50.602Z,20.10000038
2023-02-11T04:15:51.426Z,21.60000038
2023-02-11T04:16:52.518Z,21.89999962
2023-02-11T04:17:52.919Z,20.79999924
2023-02-11T04:18:53.485Z,20.20000076
2023-02-11T04:19:53.946Z,21.39999962
2023-02-11T04:20:54.469Z,19.89999962
2023-02-11T04:21:54.964Z,17.39999962
2023-02-11T04:22:55.420Z,23.20000076
2023-02-11T04:23:55.980Z,20.5
2023-02-11T04:24:56.405Z,22.5
2023-02-11T04:25:56.971Z,22.20000076
2023-02-11T04:26:58.289Z,21.20000076
2023-02-11T04:27:58.964Z,21.10000038
2023-02-11T04:29:30.779Z,20.20000076
2023-02-11T04:30:31.413Z,24.70000076
2023-02-11T04:31:31.946Z,21
2023-02-11T04:32:32.368Z,20
2023-02-11T04:33:32.938Z,22.5
2023-02-11T04:34:33.436Z,22.5
2023-02-11T04:35:34.012Z,22.79999924
2023-02-11T04:36:34.472Z,20.39999962
2023-02-11T04:37:35.733Z,21.79999924
2023-02-11T04:38:36.256Z,21.20000076
2023-02-11T04:39:36.681Z,20.20000076
2023-02-11T04:40:37.262Z,21.89999962
2023-02-11T04:41:38.228Z,19.79999924
2023-02-11T04:42:38.822Z,18.70000076
2023-02-11T04:43:39.325Z,21.10000038
2023-02-11T04:44:39.785Z,20.29999924
2023-02-11T04:45:40.596Z,20
2023-02-11T04:46:41.014Z,21.89999962
2023-02-11T04:47:42.366Z,24.20000076
2023-02-11T04:48:42.804Z,19.70000076
2023-02-11T04:49:43.390Z,20.29999924
2023-02-11T04:50:43.881Z,19.20000076
2023-02-11T04:51:44.317Z,19.20000076
2023-02-11T04:52:44.885Z,21.10000038
2023-02-11T04:53:45.391Z,22.70000076
2023-02-11T04:54:45.951Z,20.60000038
2023-02-11T04:55:46.376Z,21.29999924
2023-02-11T04:56:46.871Z,22.20000076
2023-02-11T04:57:48.218Z,20.79999924
2023-02-11T04:58:48.720Z,19
2023-02-11T04:59:49.256Z,22
2023-02-11T05:00:49.698Z,19.29999924
2023-02-11T05:01:51.019Z,19.60000038
2023-02-11T05:02:51.466Z,19
2023-02-11T05:03:51.965Z,20.89999962
2023-02-11T05:04:52.570Z,19.39999962
2023-02-11T05:05:53.437Z,22.29999924
2023-02-11T05:06:53.705Z,20.89999962
2023-02-11T05:07:54.711Z,20.10000038
2023-02-11T05:08:55.211Z,20
2023-02-11T05:09:55.787Z,19.20000076
2023-02-11T05:10:56.278Z,19.20000076
2023-02-11T05:11:57.892Z,22.39999962
2023-02-11T05:12:58.336Z,20.20000076
2023-02-11T05:13:58.928Z,22.29999924
2023-02-11T05:14:59.365Z,20.70000076
2023-02-11T05:16:30.440Z,20.10000038
2023-02-11T05:17:31.519Z,22.29999924
2023-02-11T05:18:31.993Z,21.60000038
2023-02-11T05:19:32.483Z,22
2023-02-11T05:20:32.922Z,20.20000076
2023-02-11T05:21:33.536Z,20.60000038
2023-02-11T05:22:33.971Z,18.70000076
2023-02-11T05:23:34.672Z,23.10000038
2023-02-11T05:24:35.129Z,20.5
2023-02-11T05:25:35.540Z,19.60000038
2023-02-11T05:26:36.849Z,19.10000038
2023-02-11T05:27:38.029Z,21.10000038
2023-02-11T05:28:38.485Z,20.39999962
2023-02-11T05:29:39.113Z,23.20000076
2023-02-11T05:30:39.622Z,21.20000076
2023-02-11T05:31:40.024Z,20.79999924
2023-02-11T05:32:40.845Z,20.29999924
2023-02-11T05:33:41.326Z,21.89999962
2023-02-11T05:34:41.953Z,24.20000076
2023-02-11T05:35:42.433Z,20.79999924
2023-02-11T05:36:42.961Z,21.5
2023-02-11T05:37:44.014Z,19.60000038
2023-02-11T05:38:44.632Z,20
2023-02-11T05:39:45.169Z,22.89999962
2023-02-11T05:40:45.632Z,16.79999924
2023-02-11T05:41:46.210Z,19.60000038
2023-02-11T05:42:46.670Z,22.10000038
2023-02-11T05:43:47.132Z,22.89999962
2023-02-11T05:44:50.247Z,19.60000038
2023-02-11T05:45:48.559Z,21
2023-02-11T05:46:48.798Z,20.60000038
2023-02-11T05:47:50.038Z,19.5
2023-02-11T05:48:50.529Z,18.60000038
2023-02-11T05:49:51.021Z,21.29999924
2023-02-11T05:50:51.669Z,20.39999962
2023-02-11T05:51:52.174Z,20.89999962
2023-02-11T05:52:52.786Z,20.89999962
2023-02-11T05:53:53.282Z,21.29999924
2023-02-11T05:54:53.699Z,21.39999962
2023-02-11T05:55:54.251Z,21.39999962
2023-02-11T05:56:54.746Z,21.5
2023-02-11T05:57:56.008Z,20.29999924
2023-02-11T05:58:56.447Z,18.39999962
2023-02-11T05:59:56.976Z,20.70000076
2023-02-11T06:00:57.515Z,20.29999924
2023-02-11T06:01:58.069Z,22.10000038
2023-02-11T06:02:58.732Z,18.29999924
2023-02-11T06:04:29.670Z,19.79999924
2023-02-11T06:05:30.980Z,19.39999962
2023-02-11T06:06:31.393Z,21.29999924
2023-02-11T06:07:32.984Z,19.29999924
2023-02-11T06:08:33.491Z,23
2023-02-11T06:09:33.986Z,22.20000076
2023-02-11T06:10:34.461Z,20.29999924
2023-02-11T06:11:34.931Z,18.5
2023-02-11T06:12:35.445Z,18.79999924
2023-02-11T06:13:35.993Z,18.79999924
2023-02-11T06:14:36.627Z,21.29999924
2023-02-11T06:15:37.137Z,22.89999962
2023-02-11T06:16:37.590Z,22.29999924
2023-02-11T06:17:38.965Z,19.89999962
2023-02-11T06:18:39.668Z,19.29999924
2023-02-11T06:19:40.078Z,19.70000076
2023-02-11T06:20:40.572Z,18.5
2023-02-11T06:21:44.252Z,19.20000076
2023-02-11T06:22:41.461Z,19.60000038
2023-02-11T06:23:42.034Z,19.70000076
2023-02-11T06:25:00.237Z,22.29999924
2023-02-11T06:25:42.966Z,21.5
2023-02-11T06:26:43.578Z,21.5
2023-02-11T06:27:44.975Z,19.20000076
2023-02-11T06:28:45.620Z,22.89999962
2023-02-11T06:29:46.030Z,23.10000038
2023-02-11T06:30:46.502Z,20.89999962
2023-02-11T06:31:47.180Z,19.60000038
2023-02-11T06:32:47.830Z,21.5
2023-02-11T06:33:48.119Z,19.70000076
2023-02-11T06:34:48.529Z,19.5
2023-02-11T06:35:49.307Z,19.70000076
2023-02-11T06:36:49.530Z,22.70000076
2023-02-11T06:37:50.470Z,19.29999924
2023-02-11T06:38:50.993Z,20.60000038
2023-02-11T06:39:51.408Z,20.70000076
2023-02-11T06:40:51.898Z,21
2023-02-11T06:41:53.205Z,18.5
2023-02-11T06:42:53.724Z,20.89999962
2023-02-11T06:43:54.208Z,22
2023-02-11T06:44:54.656Z,20.10000038
2023-02-11T06:45:55.197Z,19.39999962
2023-02-11T06:46:55.645Z,19
2023-02-11T06:47:56.221Z,18.39999962
2023-02-11T06:48:57.734Z,19.5
2023-02-11T06:49:58.163Z,20.89999962
2023-02-11T06:51:29.365Z,18.89999962
2023-02-11T06:52:29.795Z,18.39999962
2023-02-11T06:53:30.406Z,16.79999924
2023-02-11T06:54:30.916Z,21.10000038
2023-02-11T06:55:31.334Z,17
2023-02-11T06:56:31.892Z,19.20000076
2023-02-11T06:57:32.400Z,17.39999962
2023-02-11T06:58:33.848Z,18.10000038
2023-02-11T06:59:34.378Z,20.10000038
2023-02-11T07:00:34.760Z,20.39999962
2023-02-11T07:01:35.313Z,19.60000038
2023-02-11T07:02:35.682Z,19.89999962
2023-02-11T07:03:36.297Z,19
2023-02-11T07:04:36.745Z,18.20000076
2023-02-11T07:05:37.245Z,21
2023-02-11T07:06:37.677Z,18.70000076
2023-02-11T07:07:38.137Z,20.10000038
2023-02-11T07:08:39.318Z,18.89999962
2023-02-11T07:09:39.765Z,22.89999962
2023-02-11T07:10:40.321Z,22.70000076
2023-02-11T07:11:40.829Z,20.10000038
2023-02-11T07:12:41.285Z,17.89999962
2023-02-11T07:13:41.896Z,19.20000076
2023-02-11T07:14:42.394Z,20.10000038
2023-02-11T07:15:42.931Z,21.29999924
2023-02-11T07:16:43.362Z,19.10000038
2023-02-11T07:17:43.789Z,17.70000076
2023-02-11T07:18:45.228Z,19.5
2023-02-11T07:19:45.736Z,18.20000076
2023-02-11T07:20:46.270Z,19.89999962
2023-02-11T07:21:46.775Z,19.29999924
2023-02-11T07:22:47.291Z,20.70000076
2023-02-11T07:23:47.755Z,21.10000038
2023-02-11T07:24:48.241Z,21.20000076
2023-02-11T07:25:49.330Z,24.10000038
2023-02-11T07:26:49.392Z,19.60000038
2023-02-11T07:27:49.957Z,20
2023-02-11T07:28:51.198Z,20
2023-02-11T07:29:51.775Z,19.70000076
2023-02-11T07:30:52.450Z,19.29999924
2023-02-11T07:31:52.895Z,20.20000076
2023-02-11T07:32:53.413Z,19.70000076
2023-02-11T07:33:53.856Z,18.10000038
2023-02-11T07:34:54.472Z,18.79999924
2023-02-11T07:35:54.885Z,21.39999962
2023-02-11T07:36:55.385Z,21.70000076
2023-02-11T07:37:56.002Z,18.89999962
2023-02-11T07:38:57.213Z,19.29999924
2023-02-11T07:39:58.226Z,16.70000076
2023-02-11T07:41:28.803Z,17
2023-02-11T07:42:30.270Z,16.60000038
2023-02-11T07:43:30.769Z,15.80000019
2023-02-11T07:44:31.380Z,18.29999924
2023-02-11T07:45:31.795Z,20.70000076
2023-02-11T07:46:32.430Z,24.10000038
2023-02-11T07:47:32.764Z,20.5
2023-02-11T07:48:34.033Z,18.39999962
2023-02-11T07:49:34.529Z,20.79999924
2023-02-11T07:50:35.008Z,17.79999924
2023-02-11T07:51:35.518Z,16.79999924
2023-02-11T07:52:35.969Z,17.39999962
2023-02-11T07:53:36.564Z,14.80000019
2023-02-11T07:54:37.260Z,16.10000038
2023-02-11T07:55:37.548Z,21.89999962
2023-02-11T07:56:38.108Z,15.89999962
2023-02-11T07:57:38.556Z,15.5
2023-02-11T07:58:40.054Z,14.80000019
2023-02-11T07:59:40.740Z,16.29999924
2023-02-11T08:00:41.357Z,15.80000019
2023-02-11T08:01:41.828Z,14.30000019
2023-02-11T08:02:42.259Z,15.30000019
2023-02-11T08:03:42.893Z,17.89999962
2023-02-11T08:04:43.304Z,14.19999981
2023-02-11T08:05:44.701Z,23.89999962
2023-02-11T08:06:45.208Z,15.19999981
2023-02-11T08:07:45.654Z,16.5
2023-02-11T08:08:46.998Z,16.10000038
2023-02-11T08:09:47.511Z,16.29999924
2023-02-11T08:10:48.358Z,15.39999962
2023-02-11T08:11:49.224Z,13.39999962
2023-02-11T08:12:49.687Z,14.89999962
2023-02-11T08:13:50.171Z,14.60000038
2023-02-11T08:14:50.607Z,13.5
2023-02-11T08:15:51.518Z,17.89999962
2023-02-11T08:16:51.762Z,14.60000038
2023-02-11T08:17:52.598Z,13.89999962
2023-02-11T08:18:53.988Z,15.19999981
2023-02-11T08:19:54.631Z,15.89999962
2023-02-11T08:20:55.271Z,13.69999981
2023-02-11T08:21:55.826Z,17.70000076
2023-02-11T08:22:56.562Z,14.19999981
2023-02-11T08:23:57.017Z,15.80000019
2023-02-11T08:25:28.961Z,14.60000038
2023-02-11T08:26:29.599Z,15.80000019
2023-02-11T08:27:30.176Z,17.5
2023-02-11T08:28:31.559Z,15.80000019
2023-02-11T08:29:33.012Z,13
2023-02-11T08:30:33.525Z,16.20000076
2023-02-11T08:31:34.460Z,13.80000019
2023-02-11T08:32:35.482Z,15.10000038
2023-02-11T08:33:35.985Z,13.5
2023-02-11T08:34:36.674Z,13.60000038
2023-02-11T08:35:37.960Z,13.60000038
2023-02-11T08:36:39.566Z,14
2023-02-11T08:37:40.107Z,13.69999981
2023-02-11T08:38:41.490Z,13.80000019
2023-02-11T08:39:42.951Z,14.69999981
2023-02-11T08:40:43.403Z,12.39999962
2023-02-11T08:41:45.059Z,12.60000038
2023-02-11T08:42:45.563Z,12.89999962
2023-02-11T08:43:46.182Z,12.89999962
2023-02-11T08:44:46.717Z,14.30000019
2023-02-11T08:45:47.497Z,14.19999981
2023-02-11T08:46:48.726Z,13.39999962
2023-02-11T08:47:49.426Z,14.60000038
2023-02-11T08:48:51.003Z,14.19999981
2023-02-11T08:49:51.491Z,14.30000019
2023-02-11T08:50:52.126Z,13.30000019
2023-02-11T08:51:52.617Z,14.80000019
2023-02-11T08:52:53.203Z,17.10000038
2023-02-11T08:53:53.739Z,13.60000038
2023-02-11T08:54:54.212Z,13.30000019
2023-02-11T08:55:54.754Z,12.80000019
2023-02-11T08:56:55.250Z,12.39999962
2023-02-11T08:57:56.518Z,13.10000038
2023-02-11T08:59:28.182Z,14
2023-02-11T09:00:29.545Z,14.30000019
2023-02-11T09:01:30.137Z,12.39999962
2023-02-11T09:02:31.281Z,12.69999981
2023-02-11T09:03:31.772Z,12.89999962
2023-02-11T09:04:33.197Z,13.19999981
2023-02-11T09:05:33.755Z,12.19999981
2023-02-11T09:06:34.969Z,15.89999962
2023-02-11T09:07:35.612Z,16.20000076
2023-02-11T09:08:36.043Z,14.80000019
2023-02-11T09:09:37.336Z,14.60000038
2023-02-11T09:10:37.862Z,14.80000019
2023-02-11T09:11:38.988Z,11.10000038
2023-02-11T09:12:39.477Z,16.10000038
2023-02-11T09:13:39.904Z,15.89999962
2023-02-11T09:14:40.880Z,11.19999981
2023-02-11T09:15:41.950Z,13.60000038
2023-02-11T09:16:43.470Z,13
2023-02-11T09:17:43.926Z,13.10000038
2023-02-11T09:18:44.512Z,14.80000019
2023-02-11T09:19:45.705Z,15
2023-02-11T09:20:46.132Z,14.89999962
2023-02-11T09:21:46.757Z,15.89999962
2023-02-11T09:22:47.204Z,15.39999962
2023-02-11T09:23:47.971Z,15.80000019
2023-02-11T09:24:48.253Z,14.30000019
2023-02-11T09:25:49.067Z,16.29999924
2023-02-11T09:26:49.359Z,16.60000038
2023-02-11T09:27:49.823Z,15.89999962
2023-02-11T09:28:50.276Z,15.80000019
2023-02-11T09:29:51.801Z,12.69999981
2023-02-11T09:30:52.677Z,13.5
2023-02-11T09:31:52.970Z,14.39999962
2023-02-11T09:32:53.624Z,15.19999981
2023-02-11T09:33:53.936Z,15.10000038
2023-02-11T09:34:55.267Z,17.20000076
2023-02-11T09:35:55.726Z,13.10000038
2023-02-11T09:36:56.285Z,14.80000019
2023-02-11T09:38:27.116Z,13.89999962
2023-02-11T09:39:28.555Z,15.19999981
2023-02-11T09:40:29.128Z,14.30000019
2023-02-11T09:41:29.674Z,12.80000019
2023-02-11T09:42:30.230Z,19.60000038
2023-02-11T09:43:30.671Z,15.39999962
2023-02-11T09:44:31.206Z,15
2023-02-11T09:45:31.644Z,14
2023-02-11T09:46:32.320Z,13.19999981
2023-02-11T09:47:32.729Z,14.69999981
2023-02-11T09:48:33.280Z,14.5
2023-02-11T09:49:34.450Z,12.5
2023-02-11T09:50:34.925Z,14.30000019
2023-02-11T09:51:35.420Z,18.5
2023-02-11T09:52:35.949Z,16.70000076
2023-02-11T09:53:36.455Z,12.80000019
2023-02-11T09:54:37.046Z,15.69999981
2023-02-11T09:55:37.477Z,12.60000038
2023-02-11T09:56:37.927Z,11.39999962
2023-02-11T09:57:38.438Z,13.19999981
2023-02-11T09:58:39.480Z,13.80000019
2023-02-11T09:59:39.969Z,13.19999981
2023-02-11T10:00:41.434Z,12.10000038
2023-02-11T10:01:41.951Z,14.39999962
2023-02-11T10:02:42.434Z,14.5
2023-02-11T10:03:42.923Z,12.80000019
2023-02-11T10:04:43.523Z,12.60000038
2023-02-11T10:05:43.954Z,12.5
2023-02-11T10:06:44.459Z,15.5
2023-02-11T10:07:44.917Z,13.69999981
2023-02-11T10:08:45.460Z,11.89999962
2023-02-11T10:09:46.845Z,12.69999981
2023-02-11T10:10:48.184Z,11.5
2023-02-11T10:11:48.697Z,12.69999981
2023-02-11T10:12:49.214Z,15.60000038
2023-02-11T10:13:49.720Z,12.5
2023-02-11T10:14:50.274Z,13.30000019
2023-02-11T10:15:50.825Z,14.5
2023-02-11T10:16:51.232Z,14.19999981
2023-02-11T10:17:51.744Z,14.89999962
2023-02-11T10:18:52.231Z,14.80000019
2023-02-11T10:19:53.454Z,14.60000038
2023-02-11T10:20:53.914Z,14.30000019
2023-02-11T10:21:54.548Z,17.39999962
2023-02-11T10:22:54.958Z,14.80000019
2023-02-11T10:23:55.539Z,16.60000038
2023-02-11T10:25:26.730Z,15.30000019
2023-02-11T10:26:27.057Z,14.5
2023-02-11T10:27:27.633Z,15
2023-02-11T10:28:29.031Z,15.69999981
2023-02-11T10:29:29.590Z,16.89999962
2023-02-11T10:30:30.766Z,14.60000038
2023-02-11T10:31:31.418Z,14.5
2023-02-11T10:32:31.753Z,14.80000019
2023-02-11T10:33:32.213Z,15.30000019
2023-02-11T10:34:32.766Z,16.89999962
2023-02-11T10:35:33.290Z,16.5
2023-02-11T10:36:33.838Z,15.5
2023-02-11T10:37:34.309Z,17.5
2023-02-11T10:38:34.751Z,14.5
2023-02-11T10:39:35.964Z,14.60000038
2023-02-11T10:40:36.467Z,15.30000019
2023-02-11T10:41:37.975Z,15.39999962
2023-02-11T10:42:38.419Z,15.39999962
2023-02-11T10:43:38.920Z,16
2023-02-11T10:44:39.379Z,17.70000076
2023-02-11T10:45:39.791Z,22.10000038
2023-02-11T10:46:40.811Z,16.89999962
2023-02-11T10:47:41.161Z,19.89999962
2023-02-11T10:48:41.725Z,17.79999924
2023-02-11T10:49:42.990Z,17
2023-02-11T10:50:43.455Z,16
2023-02-11T10:51:43.956Z,18.60000038
2023-02-11T10:52:44.470Z,15
2023-02-11T10:53:45.019Z,15.69999981
2023-02-11T10:54:45.471Z,14.19999981
2023-02-11T10:55:46.124Z,16.20000076
2023-02-11T10:56:46.576Z,17.20000076
2023-02-11T10:57:47.063Z,17
2023-02-11T10:58:48.243Z,15.30000019
2023-02-11T10:59:49.479Z,13.69999981
2023-02-11T11:00:50.227Z,16.60000038
2023-02-11T11:01:50.406Z,16.10000038
2023-02-11T11:02:50.790Z,19.89999962
2023-02-11T11:03:51.358Z,16.39999962
2023-02-11T11:04:51.957Z,17.5
2023-02-11T11:05:52.353Z,20
2023-02-11T11:06:52.876Z,16.60000038
2023-02-11T11:07:53.335Z,18.5
2023-02-11T11:08:53.922Z,16.5
2023-02-11T11:09:54.988Z,16.39999962
2023-02-11T11:11:26.082Z,17.39999962
2023-02-11T11:12:26.475Z,17
2023-02-11T11:13:26.978Z,16.89999962
2023-02-11T11:14:27.429Z,17.39999962
2023-02-11T11:15:27.891Z,31.20000076
2023-02-11T11:16:28.468Z,44.59999847
2023-02-11T11:17:28.839Z,48.5
2023-02-11T11:18:29.360Z,51.5
2023-02-11T11:19:29.896Z,72.40000153
2023-02-11T11:20:31.262Z,25
2023-02-11T11:21:31.775Z,43.5
2023-02-11T11:22:32.223Z,32
2023-02-11T11:23:32.763Z,37.79999924
2023-02-11T11:24:33.298Z,27.60000038
2023-02-11T11:25:33.760Z,23.29999924
2023-02-11T11:26:34.294Z,19.29999924
2023-02-11T11:27:34.775Z,24.10000038
2023-02-11T11:28:36.052Z,18
2023-02-11T11:29:36.474Z,16.10000038
2023-02-11T11:30:37.775Z,15.89999962